Pointe-Calumet, Canada
Current Conditions -  °F | °C
As of 10:00 PM on Thursday 18 Dec 2014 (Local Time) from CYUL Reporting Station
Light Snow Light Snow  
Wind Chill: 20°   Ceiling: 2100
Heat Index: 28°   Visibility: 15mi
Dew Point: 25°   Wind: 8mph
Humidity: 86%   Direction: 270°W
Pressure: 29.94"   Gusts: NA
Location:  45.5°N, 73.97°W
Report Text: CYUL 190300Z 27007KT 15SM -SN FEW010 OVC021 M02/M04 A2994 RMK SF1SC8 SF TR SLP140
Loading
Personal Weather Stations






























Interactive Weather Map New forecast layout! Learn more

10-Day Weather Forecast

Advertisements
Track Severe Weather on mobile